createdAt,value
2023-03-21T00:01:53.513Z,18.91
2023-03-21T00:04:23.274Z,18.88
2023-03-21T00:06:50.632Z,18.75
2023-03-21T00:09:18.432Z,18.68
2023-03-21T00:11:45.777Z,18.63
2023-03-21T00:14:20.189Z,18.64
2023-03-21T00:16:52.174Z,18.85
2023-03-21T00:19:22.018Z,18.75
2023-03-21T00:22:08.768Z,18.45
2023-03-21T00:24:37.238Z,18.59
2023-03-21T00:29:52.203Z,18.43
2023-03-21T00:32:21.490Z,18.53
2023-03-21T00:35:01.391Z,18.50
2023-03-21T00:37:29.424Z,18.41
2023-03-21T00:39:56.457Z,18.40
2023-03-21T00:42:23.932Z,18.36
2023-03-21T00:44:51.234Z,18.40
2023-03-21T00:47:18.293Z,18.38
2023-03-21T00:49:45.925Z,18.43
2023-03-21T00:52:18.713Z,18.39
2023-03-21T00:54:52.224Z,18.48
2023-03-21T00:57:22.047Z,18.23
2023-03-21T00:59:51.288Z,18.31
2023-03-21T01:02:23.077Z,18.24
2023-03-21T01:04:50.550Z,18.11
2023-03-21T01:07:17.553Z,17.99
2023-03-21T01:09:44.657Z,18.10
2023-03-21T01:12:11.749Z,18.14
2023-03-21T01:14:38.978Z,18.07
2023-03-21T01:17:06.241Z,18.10
2023-03-21T01:19:50.207Z,18.15
2023-03-21T01:22:18.112Z,18.21
2023-03-21T01:24:53.881Z,18.40
2023-03-21T01:27:23.964Z,18.52
2023-03-21T01:29:51.685Z,18.42
2023-03-21T01:32:18.733Z,18.31
2023-03-21T01:34:45.800Z,18.26
2023-03-21T01:37:13.023Z,18.14
2023-03-21T01:39:46.172Z,18.13
2023-03-21T01:42:14.674Z,18.21
2023-03-21T01:45:01.839Z,18.44
2023-03-21T01:47:36.953Z,18.14
2023-03-21T01:50:22.167Z,18.26
2023-03-21T01:53:04.070Z,18.16
2023-03-21T01:55:34.136Z,18.17
2023-03-21T01:58:28.245Z,17.95
2023-03-21T02:01:06.911Z,17.86
2023-03-21T02:03:51.204Z,18.02
2023-03-21T02:07:07.832Z,18.27
2023-03-21T02:09:49.002Z,18.29
2023-03-21T02:12:20.339Z,18.17
2023-03-21T02:14:50.176Z,18.27
2023-03-21T02:17:35.621Z,18.36
2023-03-21T02:20:31.320Z,18.52
2023-03-21T02:23:44.980Z,18.65
2023-03-21T02:27:03.661Z,18.48
2023-03-21T02:30:08.690Z,18.36
2023-03-21T02:33:17.796Z,18.26
2023-03-21T02:36:17.707Z,18.29
2023-03-21T02:39:35.444Z,18.19
2023-03-21T02:42:16.037Z,17.98
2023-03-21T02:45:02.754Z,18.05
2023-03-21T02:47:47.536Z,18.12
2023-03-21T02:50:57.275Z,18.08
2023-03-21T02:53:29.644Z,17.89
2023-03-21T02:56:00.155Z,17.87
2023-03-21T02:58:29.538Z,17.87
2023-03-21T03:00:59.068Z,17.71
2023-03-21T03:03:35.155Z,17.73
2023-03-21T03:06:29.529Z,18.06
2023-03-21T03:09:38.734Z,18.01
2023-03-21T03:12:41.118Z,17.92
2023-03-21T03:15:11.579Z,17.70
2023-03-21T03:17:59.584Z,17.98
2023-03-21T03:20:39.213Z,17.82
2023-03-21T03:23:28.282Z,17.83
2023-03-21T03:26:05.707Z,17.87
2023-03-21T03:28:39.824Z,17.88
2023-03-21T03:31:17.653Z,17.88
2023-03-21T03:33:56.685Z,17.79
2023-03-21T03:36:35.749Z,17.80
2023-03-21T03:39:10.078Z,17.88
2023-03-21T03:42:18.457Z,17.94
2023-03-21T03:44:58.814Z,17.65
2023-03-21T03:47:47.756Z,17.69
2023-03-21T03:50:31.941Z,17.88
2023-03-21T03:53:21.925Z,18.04
2023-03-21T03:55:53.437Z,18.09
2023-03-21T03:58:26.043Z,17.74
2023-03-21T04:00:59.354Z,17.40
2023-03-21T04:03:26.618Z,17.47
2023-03-21T04:05:54.254Z,17.49
2023-03-21T04:08:23.253Z,17.48
2023-03-21T04:10:53.688Z,17.42
2023-03-21T04:13:21.863Z,17.29
2023-03-21T04:16:03.758Z,17.29
2023-03-21T04:18:30.988Z,17.34
2023-03-21T04:20:58.985Z,17.41
2023-03-21T04:23:29.960Z,17.18
2023-03-21T04:25:57.578Z,17.36
2023-03-21T04:28:37.079Z,17.40
2023-03-21T04:31:27.218Z,17.35
2023-03-21T04:34:10.190Z,17.39
2023-03-21T04:36:44.494Z,17.37
2023-03-21T04:39:13.083Z,17.53
2023-03-21T04:41:44.223Z,17.69
2023-03-21T04:44:14.479Z,17.71
2023-03-21T04:46:42.592Z,18.26
2023-03-21T04:49:10.981Z,17.42
2023-03-21T04:51:39.165Z,17.43
2023-03-21T04:56:38.124Z,17.39
2023-03-21T04:59:13.106Z,18.54
2023-03-21T05:01:41.366Z,18.36
2023-03-21T05:04:10.391Z,18.38
2023-03-21T05:06:45.190Z,17.63
2023-03-21T05:09:13.547Z,17.41
2023-03-21T05:11:42.815Z,17.52
2023-03-21T05:14:19.092Z,17.74
2023-03-21T05:16:56.143Z,17.42
2023-03-21T05:19:35.240Z,17.50
2023-03-21T05:22:10.938Z,17.71
2023-03-21T05:24:41.657Z,17.41
2023-03-21T05:27:14.216Z,17.63
2023-03-21T05:29:45.226Z,17.77
2023-03-21T05:32:12.685Z,17.85
2023-03-21T05:34:40.253Z,17.58
2023-03-21T05:37:07.699Z,17.44
2023-03-21T05:39:45.284Z,17.42
2023-03-21T05:42:22.887Z,17.59
2023-03-21T05:44:51.197Z,17.75
2023-03-21T05:47:23.198Z,17.76
2023-03-21T05:49:52.516Z,17.86
2023-03-21T05:52:24.148Z,18.00
2023-03-21T05:54:52.337Z,17.83
2023-03-21T05:57:23.407Z,17.74
2023-03-21T06:00:03.668Z,17.58
2023-03-21T06:02:42.551Z,17.63
2023-03-21T06:05:27.136Z,17.67
2023-03-21T06:07:54.307Z,17.55
2023-03-21T06:10:22.228Z,17.82
2023-03-21T06:12:50.610Z,17.79
2023-03-21T06:15:44.344Z,17.75
2023-03-21T06:18:16.317Z,17.63
2023-03-21T06:20:55.119Z,17.79
2023-03-21T06:23:22.820Z,17.55
2023-03-21T06:25:50.708Z,17.73
2023-03-21T06:28:18.239Z,17.72
2023-03-21T06:30:45.640Z,17.78
2023-03-21T06:33:20.918Z,17.74
2023-03-21T06:35:53.182Z,17.79
2023-03-21T06:38:20.860Z,17.70
2023-03-21T06:40:49.251Z,17.67
2023-03-21T06:43:16.940Z,17.87
2023-03-21T06:45:44.923Z,18.05
2023-03-21T06:48:12.985Z,18.13
2023-03-21T06:50:51.477Z,18.41
2023-03-21T06:53:24.289Z,18.51
2023-03-21T06:56:11.843Z,18.09
2023-03-21T06:58:41.162Z,17.47
2023-03-21T07:01:14.791Z,17.57
2023-03-21T07:03:53.684Z,17.73
2023-03-21T07:06:23.401Z,17.56
2023-03-21T07:08:50.835Z,17.20
2023-03-21T07:11:18.458Z,17.60
2023-03-21T07:13:48.678Z,18.09
2023-03-21T07:16:17.482Z,18.04
2023-03-21T07:18:45.364Z,18.16
2023-03-21T07:21:13.078Z,18.52
2023-03-21T07:23:41.422Z,18.68
2023-03-21T07:26:09.052Z,18.64
2023-03-21T07:28:36.836Z,18.56
2023-03-21T07:31:06.965Z,18.66
2023-03-21T07:33:34.587Z,18.68
2023-03-21T07:36:02.740Z,16.58
2023-03-21T07:38:31.133Z,18.11
2023-03-21T07:41:00.707Z,18.33
2023-03-21T07:43:31.482Z,17.69
2023-03-21T07:45:59.917Z,17.97
2023-03-21T07:48:28.404Z,18.62
2023-03-21T07:50:56.155Z,18.30
2023-03-21T07:53:23.706Z,18.30
2023-03-21T07:55:58.067Z,17.58
2023-03-21T07:58:26.663Z,18.13
2023-03-21T08:00:56.541Z,18.22
2023-03-21T08:03:26.209Z,18.68
2023-03-21T08:05:53.690Z,18.97
2023-03-21T08:08:21.203Z,18.99
2023-03-21T08:10:48.753Z,18.82
2023-03-21T08:13:16.179Z,19.13
2023-03-21T08:15:43.679Z,19.21
2023-03-21T08:18:11.497Z,18.99
2023-03-21T08:20:39.986Z,19.26
2023-03-21T08:23:07.023Z,18.53
2023-03-21T08:25:34.498Z,18.68
2023-03-21T08:28:02.046Z,18.87
2023-03-21T08:30:29.774Z,19.19
2023-03-21T08:33:01.189Z,19.65
2023-03-21T08:35:29.519Z,18.89
2023-03-21T08:37:57.338Z,18.63
2023-03-21T08:40:24.760Z,18.81
2023-03-21T08:42:52.370Z,18.39
2023-03-21T08:45:20.321Z,17.65
2023-03-21T08:47:48.044Z,18.65
2023-03-21T08:50:21.270Z,19.40
2023-03-21T08:52:49.288Z,19.29
2023-03-21T08:55:18.823Z,19.24
2023-03-21T08:57:46.533Z,19.43
2023-03-21T09:00:17.145Z,19.97
2023-03-21T09:02:49.600Z,19.90
2023-03-21T09:05:17.200Z,18.26
2023-03-21T09:07:45.423Z,18.96
2023-03-21T09:10:22.223Z,20.10
2023-03-21T09:12:52.293Z,20.29
2023-03-21T09:15:21.589Z,20.17
2023-03-21T09:17:52.784Z,20.72
2023-03-21T09:20:22.634Z,20.09
2023-03-21T09:22:52.134Z,19.61
2023-03-21T09:25:20.632Z,19.63
2023-03-21T09:27:48.323Z,19.25
2023-03-21T09:30:24.719Z,20.08
2023-03-21T09:32:55.531Z,19.80
2023-03-21T09:35:24.305Z,20.10
2023-03-21T09:37:51.844Z,21.03
2023-03-21T09:40:35.358Z,21.33
2023-03-21T09:43:18.422Z,21.18
2023-03-21T09:46:12.595Z,20.81
2023-03-21T09:49:09.794Z,20.99
2023-03-21T09:51:48.705Z,21.15
2023-03-21T09:54:26.965Z,19.81
2023-03-21T09:56:57.427Z,20.88
2023-03-21T09:59:41.366Z,20.23
2023-03-21T10:02:36.785Z,20.71
2023-03-21T10:05:17.714Z,20.90
2023-03-21T10:07:59.989Z,19.84
2023-03-21T10:10:29.623Z,19.94
2023-03-21T10:12:57.121Z,19.53
2023-03-21T10:15:26.736Z,19.52
2023-03-21T10:17:56.862Z,20.48
2023-03-21T10:20:33.636Z,20.56
2023-03-21T10:23:05.426Z,20.23
2023-03-21T10:25:38.692Z,20.07
2023-03-21T10:28:08.323Z,21.49
2023-03-21T10:30:48.238Z,19.96
2023-03-21T10:33:45.900Z,20.10
2023-03-21T10:36:25.782Z,21.42
2023-03-21T10:39:04.282Z,21.17
2023-03-21T10:41:32.513Z,20.05
2023-03-21T10:44:11.834Z,19.80
2023-03-21T10:46:39.683Z,19.66
2023-03-21T10:49:08.593Z,20.48
2023-03-21T10:51:38.412Z,20.72
2023-03-21T10:54:14.359Z,21.13
2023-03-21T10:57:01.107Z,21.33
2023-03-21T10:59:38.028Z,20.93
2023-03-21T11:02:06.944Z,21.95
2023-03-21T11:04:37.032Z,21.11
2023-03-21T11:07:07.459Z,19.88
2023-03-21T11:09:54.902Z,21.29
2023-03-21T11:12:40.761Z,21.08
2023-03-21T11:15:31.087Z,20.99
2023-03-21T11:18:00.387Z,21.35
2023-03-21T11:20:31.707Z,20.42
2023-03-21T11:22:58.724Z,20.42
2023-03-21T11:25:46.365Z,21.65
2023-03-21T11:28:22.749Z,21.45
2023-03-21T11:31:01.667Z,22.36
2023-03-21T11:33:44.498Z,23.25
2023-03-21T11:36:20.824Z,21.99
2023-03-21T11:39:01.727Z,23.52
2023-03-21T11:41:34.600Z,23.06
2023-03-21T11:44:03.337Z,21.73
2023-03-21T11:46:32.627Z,20.94
2023-03-21T11:49:01.570Z,21.45
2023-03-21T11:51:52.570Z,22.77
2023-03-21T11:55:09.028Z,22.48
2023-03-21T11:58:14.249Z,20.45
2023-03-21T12:00:59.538Z,21.70
2023-03-21T12:04:13.337Z,21.81
2023-03-21T12:06:52.929Z,22.48
2023-03-21T12:09:28.338Z,22.00
2023-03-21T12:12:38.001Z,22.02
2023-03-21T12:15:31.771Z,21.51
2023-03-21T12:18:31.811Z,21.44
2023-03-21T12:21:04.238Z,22.05
2023-03-21T12:24:04.206Z,21.59
2023-03-21T12:26:58.112Z,21.37
2023-03-21T12:30:10.247Z,21.59
2023-03-21T12:32:43.570Z,20.73
2023-03-21T12:35:57.223Z,21.34
2023-03-21T12:39:05.083Z,21.18
2023-03-21T12:42:00.262Z,21.19
2023-03-21T12:44:30.349Z,20.50
2023-03-21T12:47:05.096Z,20.60
2023-03-21T12:50:03.656Z,20.83
2023-03-21T12:52:42.375Z,20.20
2023-03-21T12:55:23.986Z,20.40
2023-03-21T12:58:18.851Z,20.48
2023-03-21T13:00:51.898Z,20.63
2023-03-21T13:03:40.152Z,20.44
2023-03-21T13:06:13.417Z,20.36
2023-03-21T13:08:49.717Z,20.56
2023-03-21T13:11:23.590Z,21.17
2023-03-21T13:14:00.651Z,20.95
2023-03-21T13:16:47.927Z,21.05
2023-03-21T13:19:43.069Z,20.85
2023-03-21T13:22:42.455Z,21.39
2023-03-21T13:25:23.326Z,21.77
2023-03-21T13:28:01.176Z,21.61
2023-03-21T13:30:32.353Z,22.24
2023-03-21T13:33:12.382Z,22.67
2023-03-21T13:35:45.449Z,22.72
2023-03-21T13:38:28.714Z,23.06
2023-03-21T13:41:35.938Z,23.48
2023-03-21T13:44:03.230Z,22.66
2023-03-21T13:46:32.698Z,22.47
2023-03-21T13:49:07.603Z,22.90
2023-03-21T13:51:45.038Z,22.82
2023-03-21T13:54:52.265Z,23.19
2023-03-21T13:57:34.180Z,23.09
2023-03-21T14:00:31.310Z,23.24
2023-03-21T14:03:12.319Z,22.91
2023-03-21T14:05:39.936Z,23.01
2023-03-21T14:08:17.255Z,23.16
2023-03-21T14:11:00.752Z,22.94
2023-03-21T14:13:29.811Z,23.14
2023-03-21T14:16:07.620Z,23.08
2023-03-21T14:18:53.903Z,22.86
2023-03-21T14:21:30.208Z,22.79
2023-03-21T14:24:17.739Z,22.68
2023-03-21T14:26:51.139Z,22.83
2023-03-21T14:29:33.805Z,23.25
2023-03-21T14:32:02.536Z,22.43
2023-03-21T14:34:34.099Z,22.76
2023-03-21T14:37:01.531Z,22.80
2023-03-21T14:39:33.421Z,22.92
2023-03-21T14:42:11.456Z,22.99
2023-03-21T14:44:54.962Z,22.63
2023-03-21T14:47:27.320Z,22.45
2023-03-21T14:50:07.207Z,22.53
2023-03-21T14:52:40.495Z,22.83
2023-03-21T14:55:16.375Z,22.59
2023-03-21T14:57:43.794Z,22.72
2023-03-21T15:00:29.967Z,22.74
2023-03-21T15:03:03.172Z,22.23
2023-03-21T15:05:42.441Z,22.75
2023-03-21T15:08:30.463Z,22.06
2023-03-21T15:11:15.501Z,22.69
2023-03-21T15:16:50.808Z,21.81
2023-03-21T15:19:29.139Z,21.84
2023-03-21T15:22:37.652Z,22.48
2023-03-21T15:25:09.384Z,22.90
2023-03-21T15:27:41.926Z,23.05
2023-03-21T15:30:27.903Z,22.50
2023-03-21T15:33:06.524Z,22.74
2023-03-21T15:35:46.037Z,22.91
2023-03-21T15:38:40.967Z,22.98
2023-03-21T15:41:31.575Z,22.77
2023-03-21T15:44:14.545Z,22.64
2023-03-21T15:46:48.493Z,22.62
2023-03-21T15:49:18.885Z,22.48
2023-03-21T15:52:01.982Z,22.83
2023-03-21T15:54:34.527Z,22.55
2023-03-21T15:57:09.473Z,22.47
2023-03-21T15:59:42.041Z,22.58
2023-03-21T16:02:22.460Z,22.94
2023-03-21T16:05:20.277Z,22.63
2023-03-21T16:07:47.947Z,22.40
2023-03-21T16:10:31.669Z,22.20
2023-03-21T16:13:02.631Z,22.15
2023-03-21T16:15:31.119Z,22.21
2023-03-21T16:18:03.794Z,22.33
2023-03-21T16:20:49.097Z,22.27
2023-03-21T16:23:17.440Z,22.17
2023-03-21T16:25:45.755Z,22.05
2023-03-21T16:28:17.415Z,22.47
2023-03-21T16:30:45.642Z,22.30
2023-03-21T16:33:14.035Z,22.01
2023-03-21T16:35:42.097Z,21.76
2023-03-21T16:38:14.000Z,22.05
2023-03-21T16:40:43.436Z,22.07
2023-03-21T16:43:11.607Z,21.88
2023-03-21T16:45:42.201Z,21.95
2023-03-21T16:48:16.471Z,21.53
2023-03-21T16:50:47.988Z,22.20
2023-03-21T16:53:18.844Z,22.00
2023-03-21T16:55:46.057Z,21.94
2023-03-21T16:58:16.365Z,22.06
2023-03-21T17:00:43.773Z,21.30
2023-03-21T17:03:22.099Z,21.91
2023-03-21T17:05:49.236Z,21.93
2023-03-21T17:08:21.882Z,21.87
2023-03-21T17:10:48.913Z,21.77
2023-03-21T17:13:16.202Z,21.34
2023-03-21T17:15:50.744Z,21.04
2023-03-21T17:18:17.875Z,21.32
2023-03-21T17:20:45.494Z,20.89
2023-03-21T17:23:12.488Z,20.38
2023-03-21T17:25:39.492Z,20.95
2023-03-21T17:28:06.499Z,21.02
2023-03-21T17:30:36.668Z,21.02
2023-03-21T17:33:04.337Z,20.78
2023-03-21T17:35:31.750Z,20.62
2023-03-21T17:38:00.769Z,21.79
2023-03-21T17:40:31.445Z,21.71
2023-03-21T17:43:00.950Z,21.12
2023-03-21T17:45:28.359Z,21.53
2023-03-21T17:47:55.560Z,21.64
2023-03-21T17:50:27.736Z,22.96
2023-03-21T17:52:57.802Z,23.16
2023-03-21T17:55:26.196Z,21.76
2023-03-21T17:57:53.743Z,21.91
2023-03-21T18:00:29.298Z,21.18
2023-03-21T18:02:57.274Z,21.72
2023-03-21T18:05:25.406Z,21.96
2023-03-21T18:08:09.763Z,21.05
2023-03-21T18:10:38.085Z,21.58
2023-03-21T18:13:06.100Z,20.83
2023-03-21T18:15:33.735Z,20.80
2023-03-21T18:18:00.818Z,20.36
2023-03-21T18:20:49.827Z,20.02
2023-03-21T18:23:19.164Z,20.29
2023-03-21T18:25:47.274Z,21.23
2023-03-21T18:28:19.173Z,22.38
2023-03-21T18:33:40.793Z,22.24
2023-03-21T18:36:09.812Z,22.80
2023-03-21T18:38:37.278Z,22.26
2023-03-21T18:41:06.437Z,22.13
2023-03-21T18:44:00.756Z,21.97
2023-03-21T18:46:21.982Z,21.72
2023-03-21T18:48:49.658Z,21.98
2023-03-21T18:51:23.051Z,21.92
2023-03-21T18:57:36.877Z,21.53
2023-03-21T19:00:13.348Z,21.38
2023-03-21T19:02:48.054Z,21.92
2023-03-21T19:05:18.846Z,21.55
2023-03-21T19:07:48.008Z,20.47
2023-03-21T19:10:22.850Z,21.20
2023-03-21T19:13:26.100Z,22.26
2023-03-21T19:15:56.110Z,21.86
2023-03-21T19:18:53.030Z,21.02
2023-03-21T19:21:28.685Z,20.50
2023-03-21T19:26:52.764Z,21.59
2023-03-21T19:29:20.617Z,21.60
2023-03-21T19:31:51.079Z,20.23
2023-03-21T19:34:21.295Z,21.06
2023-03-21T19:36:51.848Z,21.58
2023-03-21T19:39:22.533Z,22.52
2023-03-21T19:42:16.061Z,22.12
2023-03-21T19:45:10.319Z,22.23
2023-03-21T19:47:37.690Z,21.83
2023-03-21T19:52:54.320Z,20.49
2023-03-21T19:55:27.360Z,21.36
2023-03-21T19:57:55.062Z,21.55
2023-03-21T20:00:25.662Z,22.18
2023-03-21T20:02:53.119Z,22.10
2023-03-21T20:05:22.003Z,22.08
2023-03-21T20:07:50.087Z,22.13
2023-03-21T20:10:46.237Z,22.07
2023-03-21T20:13:38.716Z,22.22
2023-03-21T20:16:11.123Z,22.35
2023-03-21T20:18:39.873Z,22.28
2023-03-21T20:21:17.025Z,22.16
2023-03-21T20:23:49.290Z,21.95
2023-03-21T20:26:20.560Z,21.90
2023-03-21T20:29:27.870Z,22.29
2023-03-21T20:31:45.470Z,22.17
2023-03-21T20:34:13.160Z,21.80
2023-03-21T20:36:43.355Z,22.02
2023-03-21T20:39:11.680Z,21.03
2023-03-21T20:41:39.476Z,21.77
2023-03-21T20:44:39.512Z,21.77
2023-03-21T20:46:56.653Z,21.87
2023-03-21T20:49:24.916Z,21.56
2023-03-21T20:54:42.460Z,21.28
2023-03-21T20:57:10.209Z,21.80
2023-03-21T20:59:40.765Z,21.77
2023-03-21T21:02:10.150Z,21.53
2023-03-21T21:04:55.792Z,21.20
2023-03-21T21:07:27.518Z,21.17
2023-03-21T21:09:55.060Z,21.52
2023-03-21T21:12:28.765Z,21.49
2023-03-21T21:14:56.751Z,21.41
2023-03-21T21:17:54.093Z,21.71
2023-03-21T21:20:16.927Z,21.64
2023-03-21T21:22:59.424Z,21.57
2023-03-21T21:25:29.036Z,21.20
2023-03-21T21:27:56.807Z,20.97
2023-03-21T21:30:25.082Z,21.03
2023-03-21T21:32:52.594Z,20.94
2023-03-21T21:35:22.402Z,21.09
2023-03-21T21:37:52.281Z,21.07
2023-03-21T21:40:25.785Z,20.82
2023-03-21T21:42:53.734Z,20.93
2023-03-21T21:45:21.449Z,21.01
2023-03-21T21:47:49.159Z,21.27
2023-03-21T21:50:20.927Z,21.13
2023-03-21T21:52:52.911Z,21.06
2023-03-21T21:55:21.893Z,21.02
2023-03-21T21:57:52.982Z,20.75
2023-03-21T22:00:20.767Z,21.05
2023-03-21T22:02:51.412Z,20.86
2023-03-21T22:05:20.981Z,21.15
2023-03-21T22:07:49.398Z,21.14
2023-03-21T22:10:16.849Z,20.03
2023-03-21T22:12:44.394Z,20.92
2023-03-21T22:15:12.431Z,21.13
2023-03-21T22:17:41.049Z,21.01
2023-03-21T22:20:09.911Z,21.04
2023-03-21T22:22:37.811Z,21.09
2023-03-21T22:25:10.916Z,20.82
2023-03-21T22:27:41.448Z,20.87
2023-03-21T22:30:13.763Z,20.33
2023-03-21T22:32:41.708Z,20.04
2023-03-21T22:35:09.677Z,20.40
2023-03-21T22:37:40.855Z,20.47
2023-03-21T22:40:11.813Z,19.91
2023-03-21T22:42:39.751Z,20.40
2023-03-21T22:45:09.488Z,20.63
2023-03-21T22:47:37.688Z,20.69
2023-03-21T22:50:07.468Z,20.55
2023-03-21T22:52:37.212Z,20.28
2023-03-21T22:55:05.098Z,20.06
2023-03-21T22:57:32.511Z,20.21
2023-03-21T22:59:59.876Z,20.18
2023-03-21T23:02:27.537Z,20.19
2023-03-21T23:04:55.842Z,20.06
2023-03-21T23:07:23.358Z,20.13
2023-03-21T23:09:50.919Z,20.19
2023-03-21T23:12:18.275Z,20.24
2023-03-21T23:14:45.756Z,20.27
2023-03-21T23:17:13.171Z,20.26
2023-03-21T23:19:41.240Z,20.25
2023-03-21T23:22:08.998Z,20.15
2023-03-21T23:24:36.481Z,20.27
2023-03-21T23:27:03.841Z,20.23
2023-03-21T23:29:31.190Z,20.20
2023-03-21T23:31:58.621Z,20.23
2023-03-21T23:34:27.636Z,20.06
2023-03-21T23:36:54.958Z,20.23
2023-03-21T23:39:22.762Z,20.13
2023-03-21T23:41:50.247Z,20.15
2023-03-21T23:44:17.638Z,19.97
2023-03-21T23:46:45.067Z,20.02
2023-03-21T23:49:12.443Z,20.21
2023-03-21T23:51:39.825Z,20.11
2023-03-21T23:54:07.287Z,19.66
2023-03-21T23:56:34.725Z,19.86
2023-03-21T23:59:04.454Z,20.02
